sensor_id;sensor_type;location;lat;lon;timestamp;P1;durP1;ratioP1;P2;durP2;ratioP2
25319;SDS011;13256;49.012;8.610;2023-02-28T00:00:48;6.50;;;3.22;;
25319;SDS011;13256;49.012;8.610;2023-02-28T00:03:16;7.57;;;2.25;;
25319;SDS011;13256;49.012;8.610;2023-02-28T00:05:47;8.68;;;2.90;;
25319;SDS011;13256;49.012;8.610;2023-02-28T00:08:14;5.82;;;2.40;;
25319;SDS011;13256;49.012;8.610;2023-02-28T00:10:45;3.28;;;2.33;;
25319;SDS011;13256;49.012;8.610;2023-02-28T00:13:24;3.40;;;2.30;;
25319;SDS011;13256;49.012;8.610;2023-02-28T00:16:03;3.85;;;2.33;;
25319;SDS011;13256;49.012;8.610;2023-02-28T00:18:33;3.42;;;2.22;;
25319;SDS011;13256;49.012;8.610;2023-02-28T00:21:08;4.03;;;2.33;;
25319;SDS011;13256;49.012;8.610;2023-02-28T00:23:48;4.40;;;2.28;;
25319;SDS011;13256;49.012;8.610;2023-02-28T00:26:15;2.60;;;2.13;;
25319;SDS011;13256;49.012;8.610;2023-02-28T00:28:51;3.58;;;2.45;;
25319;SDS011;13256;49.012;8.610;2023-02-28T00:31:18;5.07;;;2.15;;
25319;SDS011;13256;49.012;8.610;2023-02-28T00:33:49;5.07;;;2.30;;
25319;SDS011;13256;49.012;8.610;2023-02-28T00:36:24;2.35;;;2.15;;
25319;SDS011;13256;49.012;8.610;2023-02-28T00:38:52;8.50;;;2.42;;
25319;SDS011;13256;49.012;8.610;2023-02-28T00:41:19;5.72;;;2.67;;
25319;SDS011;13256;49.012;8.610;2023-02-28T00:43:54;7.93;;;2.42;;
25319;SDS011;13256;49.012;8.610;2023-02-28T00:46:27;6.57;;;2.60;;
25319;SDS011;13256;49.012;8.610;2023-02-28T00:48:57;4.90;;;2.50;;
25319;SDS011;13256;49.012;8.610;2023-02-28T00:51:24;5.07;;;2.50;;
25319;SDS011;13256;49.012;8.610;2023-02-28T00:53:51;4.22;;;2.67;;
25319;SDS011;13256;49.012;8.610;2023-02-28T00:56:18;4.35;;;2.53;;
25319;SDS011;13256;49.012;8.610;2023-02-28T00:58:46;3.75;;;2.47;;
25319;SDS011;13256;49.012;8.610;2023-02-28T01:01:16;3.65;;;2.40;;
25319;SDS011;13256;49.012;8.610;2023-02-28T01:03:43;7.43;;;2.65;;
25319;SDS011;13256;49.012;8.610;2023-02-28T01:06:11;5.10;;;2.80;;
25319;SDS011;13256;49.012;8.610;2023-02-28T01:08:39;5.43;;;2.05;;
25319;SDS011;13256;49.012;8.610;2023-02-28T01:11:13;6.97;;;3.30;;
25319;SDS011;13256;49.012;8.610;2023-02-28T01:13:43;5.05;;;2.22;;
25319;SDS011;13256;49.012;8.610;2023-02-28T01:19:06;4.55;;;2.33;;
25319;SDS011;13256;49.012;8.610;2023-02-28T01:21:40;3.40;;;2.53;;
25319;SDS011;13256;49.012;8.610;2023-02-28T01:24:16;6.45;;;2.42;;
25319;SDS011;13256;49.012;8.610;2023-02-28T01:26:44;3.00;;;2.10;;
25319;SDS011;13256;49.012;8.610;2023-02-28T01:29:12;8.35;;;2.38;;
25319;SDS011;13256;49.012;8.610;2023-02-28T01:31:41;3.50;;;2.03;;
25319;SDS011;13256;49.012;8.610;2023-02-28T01:34:10;5.15;;;2.47;;
25319;SDS011;13256;49.012;8.610;2023-02-28T01:36:39;3.60;;;2.50;;
25319;SDS011;13256;49.012;8.610;2023-02-28T01:39:14;3.17;;;2.40;;
25319;SDS011;13256;49.012;8.610;2023-02-28T01:41:41;4.15;;;2.30;;
25319;SDS011;13256;49.012;8.610;2023-02-28T01:47:13;3.58;;;2.08;;
25319;SDS011;13256;49.012;8.610;2023-02-28T01:49:43;4.22;;;2.17;;
25319;SDS011;13256;49.012;8.610;2023-02-28T01:52:11;5.53;;;2.85;;
25319;SDS011;13256;49.012;8.610;2023-02-28T01:54:49;4.00;;;2.53;;
25319;SDS011;13256;49.012;8.610;2023-02-28T01:57:25;6.53;;;2.67;;
25319;SDS011;13256;49.012;8.610;2023-02-28T01:59:59;3.92;;;2.63;;
25319;SDS011;13256;49.012;8.610;2023-02-28T02:02:38;6.47;;;2.58;;
25319;SDS011;13256;49.012;8.610;2023-02-28T02:05:09;4.75;;;2.65;;
25319;SDS011;13256;49.012;8.610;2023-02-28T02:07:57;3.33;;;2.20;;
25319;SDS011;13256;49.012;8.610;2023-02-28T02:10:33;6.05;;;2.40;;
25319;SDS011;13256;49.012;8.610;2023-02-28T02:15:37;3.38;;;2.20;;
25319;SDS011;13256;49.012;8.610;2023-02-28T02:18:18;4.68;;;2.38;;
25319;SDS011;13256;49.012;8.610;2023-02-28T02:21:05;4.15;;;2.67;;
25319;SDS011;13256;49.012;8.610;2023-02-28T02:32:28;6.90;;;3.40;;
25319;SDS011;13256;49.012;8.610;2023-02-28T02:35:15;5.63;;;2.58;;
25319;SDS011;13256;49.012;8.610;2023-02-28T02:37:58;4.20;;;2.78;;
25319;SDS011;13256;49.012;8.610;2023-02-28T02:40:38;5.57;;;3.03;;
25319;SDS011;13256;49.012;8.610;2023-02-28T02:46:19;7.60;;;3.00;;
25319;SDS011;13256;49.012;8.610;2023-02-28T02:48:52;5.93;;;2.95;;
25319;SDS011;13256;49.012;8.610;2023-02-28T02:51:29;5.80;;;3.15;;
25319;SDS011;13256;49.012;8.610;2023-02-28T02:54:13;4.15;;;2.67;;
25319;SDS011;13256;49.012;8.610;2023-02-28T02:56:48;7.10;;;2.90;;
25319;SDS011;13256;49.012;8.610;2023-02-28T02:59:20;4.50;;;2.83;;
25319;SDS011;13256;49.012;8.610;2023-02-28T03:01:56;4.35;;;2.53;;
25319;SDS011;13256;49.012;8.610;2023-02-28T03:04:30;6.13;;;2.75;;
25319;SDS011;13256;49.012;8.610;2023-02-28T03:07:31;5.82;;;2.60;;
25319;SDS011;13256;49.012;8.610;2023-02-28T03:10:25;5.38;;;2.78;;
25319;SDS011;13256;49.012;8.610;2023-02-28T03:21:56;4.80;;;2.75;;
25319;SDS011;13256;49.012;8.610;2023-02-28T03:24:55;7.60;;;3.00;;
25319;SDS011;13256;49.012;8.610;2023-02-28T03:35:37;6.70;;;3.28;;
25319;SDS011;13256;49.012;8.610;2023-02-28T03:38:12;7.50;;;3.23;;
25319;SDS011;13256;49.012;8.610;2023-02-28T03:40:49;7.05;;;3.17;;
25319;SDS011;13256;49.012;8.610;2023-02-28T03:43:26;3.95;;;2.65;;
25319;SDS011;13256;49.012;8.610;2023-02-28T03:45:58;4.45;;;2.80;;
25319;SDS011;13256;49.012;8.610;2023-02-28T03:48:31;6.05;;;3.00;;
25319;SDS011;13256;49.012;8.610;2023-02-28T03:51:03;7.35;;;3.60;;
25319;SDS011;13256;49.012;8.610;2023-02-28T03:53:35;5.38;;;2.83;;
25319;SDS011;13256;49.012;8.610;2023-02-28T03:56:18;8.95;;;3.70;;
25319;SDS011;13256;49.012;8.610;2023-02-28T03:59:12;6.40;;;3.20;;
25319;SDS011;13256;49.012;8.610;2023-02-28T04:01:47;6.10;;;3.22;;
25319;SDS011;13256;49.012;8.610;2023-02-28T04:04:15;7.35;;;3.17;;
25319;SDS011;13256;49.012;8.610;2023-02-28T04:06:44;5.25;;;3.25;;
25319;SDS011;13256;49.012;8.610;2023-02-28T04:09:14;4.47;;;2.72;;
25319;SDS011;13256;49.012;8.610;2023-02-28T04:11:48;5.57;;;2.95;;
25319;SDS011;13256;49.012;8.610;2023-02-28T04:14:24;6.13;;;3.50;;
25319;SDS011;13256;49.012;8.610;2023-02-28T04:16:51;4.68;;;3.28;;
25319;SDS011;13256;49.012;8.610;2023-02-28T04:19:18;5.25;;;3.15;;
25319;SDS011;13256;49.012;8.610;2023-02-28T04:22:01;8.65;;;3.03;;
25319;SDS011;13256;49.012;8.610;2023-02-28T04:24:27;9.13;;;3.80;;
25319;SDS011;13256;49.012;8.610;2023-02-28T04:26:57;8.50;;;3.45;;
25319;SDS011;13256;49.012;8.610;2023-02-28T04:29:27;6.05;;;3.78;;
25319;SDS011;13256;49.012;8.610;2023-02-28T04:31:56;6.53;;;2.92;;
25319;SDS011;13256;49.012;8.610;2023-02-28T04:34:29;4.25;;;2.67;;
25319;SDS011;13256;49.012;8.610;2023-02-28T04:36:59;4.88;;;2.92;;
25319;SDS011;13256;49.012;8.610;2023-02-28T04:39:49;5.05;;;3.25;;
25319;SDS011;13256;49.012;8.610;2023-02-28T04:42:16;7.28;;;3.10;;
25319;SDS011;13256;49.012;8.610;2023-02-28T04:44:43;7.07;;;3.55;;
25319;SDS011;13256;49.012;8.610;2023-02-28T04:47:19;4.65;;;3.10;;
25319;SDS011;13256;49.012;8.610;2023-02-28T04:49:46;7.15;;;3.05;;
25319;SDS011;13256;49.012;8.610;2023-02-28T04:52:17;4.47;;;2.95;;
25319;SDS011;13256;49.012;8.610;2023-02-28T04:57:46;5.72;;;3.50;;
25319;SDS011;13256;49.012;8.610;2023-02-28T05:00:14;5.53;;;3.17;;
25319;SDS011;13256;49.012;8.610;2023-02-28T05:02:45;5.57;;;3.10;;
25319;SDS011;13256;49.012;8.610;2023-02-28T05:05:21;7.18;;;3.47;;
25319;SDS011;13256;49.012;8.610;2023-02-28T05:07:50;5.63;;;3.40;;
25319;SDS011;13256;49.012;8.610;2023-02-28T05:10:19;8.25;;;3.78;;
25319;SDS011;13256;49.012;8.610;2023-02-28T05:12:48;9.30;;;4.05;;
25319;SDS011;13256;49.012;8.610;2023-02-28T05:15:18;6.85;;;3.45;;
25319;SDS011;13256;49.012;8.610;2023-02-28T05:17:45;5.45;;;3.10;;
25319;SDS011;13256;49.012;8.610;2023-02-28T05:20:12;6.72;;;3.10;;
25319;SDS011;13256;49.012;8.610;2023-02-28T05:22:46;6.20;;;3.65;;
25319;SDS011;13256;49.012;8.610;2023-02-28T05:25:17;6.95;;;3.88;;
25319;SDS011;13256;49.012;8.610;2023-02-28T05:27:53;7.20;;;3.83;;
25319;SDS011;13256;49.012;8.610;2023-02-28T05:30:20;7.05;;;3.92;;
25319;SDS011;13256;49.012;8.610;2023-02-28T05:36:08;5.65;;;3.17;;
25319;SDS011;13256;49.012;8.610;2023-02-28T05:38:40;6.68;;;3.83;;
25319;SDS011;13256;49.012;8.610;2023-02-28T05:41:07;7.85;;;3.65;;
25319;SDS011;13256;49.012;8.610;2023-02-28T05:43:37;11.15;;;3.90;;
25319;SDS011;13256;49.012;8.610;2023-02-28T05:46:05;6.10;;;3.83;;
25319;SDS011;13256;49.012;8.610;2023-02-28T05:48:34;5.68;;;3.60;;
25319;SDS011;13256;49.012;8.610;2023-02-28T05:51:02;6.30;;;3.70;;
25319;SDS011;13256;49.012;8.610;2023-02-28T05:53:29;7.80;;;3.50;;
25319;SDS011;13256;49.012;8.610;2023-02-28T05:55:58;8.35;;;3.97;;
25319;SDS011;13256;49.012;8.610;2023-02-28T05:58:26;6.78;;;3.85;;
25319;SDS011;13256;49.012;8.610;2023-02-28T06:00:57;6.55;;;3.28;;
25319;SDS011;13256;49.012;8.610;2023-02-28T06:03:27;7.78;;;3.67;;
25319;SDS011;13256;49.012;8.610;2023-02-28T06:05:57;6.30;;;3.00;;
25319;SDS011;13256;49.012;8.610;2023-02-28T06:08:36;8.02;;;3.63;;
25319;SDS011;13256;49.012;8.610;2023-02-28T06:11:06;6.32;;;3.67;;
25319;SDS011;13256;49.012;8.610;2023-02-28T06:13:35;9.77;;;4.80;;
25319;SDS011;13256;49.012;8.610;2023-02-28T06:16:05;9.77;;;3.53;;
25319;SDS011;13256;49.012;8.610;2023-02-28T06:18:33;6.30;;;3.53;;
25319;SDS011;13256;49.012;8.610;2023-02-28T06:20:59;6.20;;;4.07;;
25319;SDS011;13256;49.012;8.610;2023-02-28T06:23:26;9.20;;;4.57;;
25319;SDS011;13256;49.012;8.610;2023-02-28T06:25:53;7.10;;;3.97;;
25319;SDS011;13256;49.012;8.610;2023-02-28T06:28:30;8.55;;;4.38;;
25319;SDS011;13256;49.012;8.610;2023-02-28T06:31:10;7.38;;;3.83;;
25319;SDS011;13256;49.012;8.610;2023-02-28T06:34:04;9.10;;;3.90;;
25319;SDS011;13256;49.012;8.610;2023-02-28T06:36:34;8.60;;;4.60;;
25319;SDS011;13256;49.012;8.610;2023-02-28T06:39:03;7.47;;;3.78;;
25319;SDS011;13256;49.012;8.610;2023-02-28T06:41:36;9.10;;;4.07;;
25319;SDS011;13256;49.012;8.610;2023-02-28T06:44:20;9.05;;;4.60;;
25319;SDS011;13256;49.012;8.610;2023-02-28T06:46:50;15.00;;;4.57;;
25319;SDS011;13256;49.012;8.610;2023-02-28T07:01:05;8.25;;;4.47;;
25319;SDS011;13256;49.012;8.610;2023-02-28T07:03:36;6.85;;;4.03;;
25319;SDS011;13256;49.012;8.610;2023-02-28T07:06:04;9.93;;;3.45;;
25319;SDS011;13256;49.012;8.610;2023-02-28T07:08:33;10.10;;;4.20;;
25319;SDS011;13256;49.012;8.610;2023-02-28T07:11:08;7.30;;;4.68;;
25319;SDS011;13256;49.012;8.610;2023-02-28T07:13:35;9.55;;;4.32;;
25319;SDS011;13256;49.012;8.610;2023-02-28T07:16:05;7.10;;;3.97;;
25319;SDS011;13256;49.012;8.610;2023-02-28T07:21:05;6.88;;;4.28;;
25319;SDS011;13256;49.012;8.610;2023-02-28T07:23:34;6.75;;;4.13;;
25319;SDS011;13256;49.012;8.610;2023-02-28T07:26:01;7.82;;;4.07;;
25319;SDS011;13256;49.012;8.610;2023-02-28T07:28:28;8.77;;;4.47;;
25319;SDS011;13256;49.012;8.610;2023-02-28T07:30:56;9.43;;;4.40;;
25319;SDS011;13256;49.012;8.610;2023-02-28T07:33:29;7.05;;;3.65;;
25319;SDS011;13256;49.012;8.610;2023-02-28T07:36:05;11.65;;;4.80;;
25319;SDS011;13256;49.012;8.610;2023-02-28T07:38:34;9.20;;;4.10;;
25319;SDS011;13256;49.012;8.610;2023-02-28T07:41:03;6.45;;;4.30;;
25319;SDS011;13256;49.012;8.610;2023-02-28T07:43:32;7.90;;;3.97;;
25319;SDS011;13256;49.012;8.610;2023-02-28T07:46:04;6.93;;;4.10;;
25319;SDS011;13256;49.012;8.610;2023-02-28T07:48:32;8.13;;;4.05;;
25319;SDS011;13256;49.012;8.610;2023-02-28T07:50:59;6.85;;;4.07;;
25319;SDS011;13256;49.012;8.610;2023-02-28T07:53:27;7.22;;;3.92;;
25319;SDS011;13256;49.012;8.610;2023-02-28T07:55:55;8.75;;;4.80;;
25319;SDS011;13256;49.012;8.610;2023-02-28T07:58:22;7.78;;;4.68;;
25319;SDS011;13256;49.012;8.610;2023-02-28T08:00:50;11.23;;;4.57;;
25319;SDS011;13256;49.012;8.610;2023-02-28T08:03:18;7.65;;;5.00;;
25319;SDS011;13256;49.012;8.610;2023-02-28T08:05:46;7.78;;;4.95;;
25319;SDS011;13256;49.012;8.610;2023-02-28T08:08:15;7.38;;;4.40;;
25319;SDS011;13256;49.012;8.610;2023-02-28T08:10:47;7.30;;;4.60;;
25319;SDS011;13256;49.012;8.610;2023-02-28T08:13:16;11.45;;;5.72;;
25319;SDS011;13256;49.012;8.610;2023-02-28T08:15:45;11.13;;;4.68;;
25319;SDS011;13256;49.012;8.610;2023-02-28T08:18:13;8.45;;;4.82;;
25319;SDS011;13256;49.012;8.610;2023-02-28T08:20:40;11.57;;;4.68;;
25319;SDS011;13256;49.012;8.610;2023-02-28T08:23:09;8.95;;;5.63;;
25319;SDS011;13256;49.012;8.610;2023-02-28T08:25:36;6.93;;;4.18;;
25319;SDS011;13256;49.012;8.610;2023-02-28T08:28:02;10.20;;;5.30;;
25319;SDS011;13256;49.012;8.610;2023-02-28T08:30:29;11.15;;;5.32;;
25319;SDS011;13256;49.012;8.610;2023-02-28T08:32:56;9.20;;;4.63;;
25319;SDS011;13256;49.012;8.610;2023-02-28T08:35:41;10.15;;;5.20;;
25319;SDS011;13256;49.012;8.610;2023-02-28T08:38:08;10.02;;;5.10;;
25319;SDS011;13256;49.012;8.610;2023-02-28T08:40:34;21.52;;;8.75;;
25319;SDS011;13256;49.012;8.610;2023-02-28T08:43:04;15.98;;;5.95;;
25319;SDS011;13256;49.012;8.610;2023-02-28T08:45:31;11.05;;;5.45;;
25319;SDS011;13256;49.012;8.610;2023-02-28T08:48:00;11.38;;;6.35;;
25319;SDS011;13256;49.012;8.610;2023-02-28T08:50:31;11.70;;;5.82;;
25319;SDS011;13256;49.012;8.610;2023-02-28T08:52:58;8.50;;;5.07;;
25319;SDS011;13256;49.012;8.610;2023-02-28T08:55:25;8.73;;;4.80;;
25319;SDS011;13256;49.012;8.610;2023-02-28T08:57:55;8.55;;;4.30;;
25319;SDS011;13256;49.012;8.610;2023-02-28T09:00:28;13.27;;;5.28;;
25319;SDS011;13256;49.012;8.610;2023-02-28T09:02:59;8.35;;;5.00;;
25319;SDS011;13256;49.012;8.610;2023-02-28T09:05:30;9.00;;;5.72;;
25319;SDS011;13256;49.012;8.610;2023-02-28T09:08:00;10.35;;;5.55;;
25319;SDS011;13256;49.012;8.610;2023-02-28T09:10:28;14.57;;;5.72;;
25319;SDS011;13256;49.012;8.610;2023-02-28T09:12:55;10.10;;;5.28;;
25319;SDS011;13256;49.012;8.610;2023-02-28T09:15:25;10.35;;;5.30;;
25319;SDS011;13256;49.012;8.610;2023-02-28T09:17:52;9.93;;;5.25;;
25319;SDS011;13256;49.012;8.610;2023-02-28T09:20:23;13.32;;;5.55;;
25319;SDS011;13256;49.012;8.610;2023-02-28T09:22:52;8.77;;;4.33;;
25319;SDS011;13256;49.012;8.610;2023-02-28T09:25:21;13.70;;;5.65;;
25319;SDS011;13256;49.012;8.610;2023-02-28T09:27:49;15.07;;;5.78;;
25319;SDS011;13256;49.012;8.610;2023-02-28T09:30:16;10.60;;;5.05;;
25319;SDS011;13256;49.012;8.610;2023-02-28T09:35:35;12.55;;;5.43;;
25319;SDS011;13256;49.012;8.610;2023-02-28T09:38:03;11.27;;;5.57;;
25319;SDS011;13256;49.012;8.610;2023-02-28T09:40:37;14.60;;;6.00;;
25319;SDS011;13256;49.012;8.610;2023-02-28T09:43:12;8.40;;;5.28;;
25319;SDS011;13256;49.012;8.610;2023-02-28T09:45:47;15.70;;;5.85;;
25319;SDS011;13256;49.012;8.610;2023-02-28T09:48:19;10.27;;;5.40;;
25319;SDS011;13256;49.012;8.610;2023-02-28T09:50:50;11.17;;;5.63;;
25319;SDS011;13256;49.012;8.610;2023-02-28T09:53:21;13.02;;;5.55;;
25319;SDS011;13256;49.012;8.610;2023-02-28T09:55:51;9.15;;;5.80;;
25319;SDS011;13256;49.012;8.610;2023-02-28T10:06:39;8.13;;;4.95;;
25319;SDS011;13256;49.012;8.610;2023-02-28T10:09:23;11.25;;;5.50;;
25319;SDS011;13256;49.012;8.610;2023-02-28T10:11:54;20.20;;;8.27;;
25319;SDS011;13256;49.012;8.610;2023-02-28T10:14:28;15.10;;;6.68;;
25319;SDS011;13256;49.012;8.610;2023-02-28T10:17:04;10.20;;;5.65;;
25319;SDS011;13256;49.012;8.610;2023-02-28T10:22:25;9.98;;;5.47;;
25319;SDS011;13256;49.012;8.610;2023-02-28T10:25:00;11.57;;;6.45;;
25319;SDS011;13256;49.012;8.610;2023-02-28T10:27:35;10.80;;;5.47;;
25319;SDS011;13256;49.012;8.610;2023-02-28T10:30:03;9.48;;;5.18;;
25319;SDS011;13256;49.012;8.610;2023-02-28T10:37:40;9.93;;;6.25;;
25319;SDS011;13256;49.012;8.610;2023-02-28T10:40:29;9.18;;;4.97;;
25319;SDS011;13256;49.012;8.610;2023-02-28T10:43:05;11.68;;;6.07;;
25319;SDS011;13256;49.012;8.610;2023-02-28T10:45:39;11.90;;;6.18;;
25319;SDS011;13256;49.012;8.610;2023-02-28T11:03:58;10.05;;;5.68;;
25319;SDS011;13256;49.012;8.610;2023-02-28T11:06:32;12.88;;;6.68;;
25319;SDS011;13256;49.012;8.610;2023-02-28T11:09:05;12.63;;;6.35;;
25319;SDS011;13256;49.012;8.610;2023-02-28T11:12:02;9.60;;;6.18;;
25319;SDS011;13256;49.012;8.610;2023-02-28T11:14:35;15.73;;;6.82;;
25319;SDS011;13256;49.012;8.610;2023-02-28T11:17:14;9.90;;;6.25;;
25319;SDS011;13256;49.012;8.610;2023-02-28T11:19:57;13.82;;;6.53;;
25319;SDS011;13256;49.012;8.610;2023-02-28T11:22:31;10.35;;;5.93;;
25319;SDS011;13256;49.012;8.610;2023-02-28T11:25:21;13.05;;;6.25;;
25319;SDS011;13256;49.012;8.610;2023-02-28T11:27:53;12.48;;;6.65;;
25319;SDS011;13256;49.012;8.610;2023-02-28T11:30:24;11.63;;;6.53;;
25319;SDS011;13256;49.012;8.610;2023-02-28T11:32:56;12.10;;;6.10;;
25319;SDS011;13256;49.012;8.610;2023-02-28T11:35:33;13.80;;;6.55;;
25319;SDS011;13256;49.012;8.610;2023-02-28T11:38:05;9.85;;;5.95;;
25319;SDS011;13256;49.012;8.610;2023-02-28T11:49:07;12.85;;;6.20;;
25319;SDS011;13256;49.012;8.610;2023-02-28T12:03:14;15.05;;;7.05;;
25319;SDS011;13256;49.012;8.610;2023-02-28T12:08:53;13.35;;;6.72;;
25319;SDS011;13256;49.012;8.610;2023-02-28T12:11:52;13.05;;;6.75;;
25319;SDS011;13256;49.012;8.610;2023-02-28T12:22:41;11.20;;;6.22;;
25319;SDS011;13256;49.012;8.610;2023-02-28T12:28:13;13.00;;;6.97;;
25319;SDS011;13256;49.012;8.610;2023-02-28T12:30:58;10.25;;;5.68;;
25319;SDS011;13256;49.012;8.610;2023-02-28T12:33:38;10.60;;;6.05;;
25319;SDS011;13256;49.012;8.610;2023-02-28T12:36:14;11.23;;;5.85;;
25319;SDS011;13256;49.012;8.610;2023-02-28T12:41:18;10.32;;;6.22;;
25319;SDS011;13256;49.012;8.610;2023-02-28T12:44:12;12.50;;;6.07;;
25319;SDS011;13256;49.012;8.610;2023-02-28T12:47:03;12.25;;;6.25;;
25319;SDS011;13256;49.012;8.610;2023-02-28T12:52:14;12.63;;;6.70;;
25319;SDS011;13256;49.012;8.610;2023-02-28T13:11:03;9.65;;;6.20;;
25319;SDS011;13256;49.012;8.610;2023-02-28T13:13:24;9.30;;;6.32;;
25319;SDS011;13256;49.012;8.610;2023-02-28T13:16:14;13.10;;;6.93;;
25319;SDS011;13256;49.012;8.610;2023-02-28T13:18:48;13.95;;;7.40;;
25319;SDS011;13256;49.012;8.610;2023-02-28T13:24:09;10.18;;;5.95;;
25319;SDS011;13256;49.012;8.610;2023-02-28T13:39:46;10.38;;;6.38;;
25319;SDS011;13256;49.012;8.610;2023-02-28T13:48:00;13.65;;;7.05;;
25319;SDS011;13256;49.012;8.610;2023-02-28T13:55:45;14.87;;;6.93;;
25319;SDS011;13256;49.012;8.610;2023-02-28T14:07:30;13.68;;;7.28;;
25319;SDS011;13256;49.012;8.610;2023-02-28T14:10:18;16.15;;;6.80;;
25319;SDS011;13256;49.012;8.610;2023-02-28T14:13:01;12.68;;;6.90;;
25319;SDS011;13256;49.012;8.610;2023-02-28T14:21:38;10.90;;;6.72;;
25319;SDS011;13256;49.012;8.610;2023-02-28T14:29:07;15.95;;;7.00;;
25319;SDS011;13256;49.012;8.610;2023-02-28T14:31:44;14.48;;;7.85;;
25319;SDS011;13256;49.012;8.610;2023-02-28T14:37:09;12.93;;;7.22;;
25319;SDS011;13256;49.012;8.610;2023-02-28T14:39:43;14.55;;;8.00;;
25319;SDS011;13256;49.012;8.610;2023-02-28T14:45:18;11.45;;;7.57;;
25319;SDS011;13256;49.012;8.610;2023-02-28T14:47:49;18.13;;;9.50;;
25319;SDS011;13256;49.012;8.610;2023-02-28T14:50:18;10.85;;;6.78;;
25319;SDS011;13256;49.012;8.610;2023-02-28T14:52:47;13.60;;;7.72;;
25319;SDS011;13256;49.012;8.610;2023-02-28T14:55:19;12.00;;;7.10;;
25319;SDS011;13256;49.012;8.610;2023-02-28T14:57:52;12.68;;;7.22;;
25319;SDS011;13256;49.012;8.610;2023-02-28T15:00:39;13.18;;;8.10;;
25319;SDS011;13256;49.012;8.610;2023-02-28T15:06:16;11.65;;;7.03;;
25319;SDS011;13256;49.012;8.610;2023-02-28T15:08:44;16.05;;;7.03;;
25319;SDS011;13256;49.012;8.610;2023-02-28T15:11:16;12.88;;;7.45;;
25319;SDS011;13256;49.012;8.610;2023-02-28T15:13:52;12.45;;;7.10;;
25319;SDS011;13256;49.012;8.610;2023-02-28T15:16:34;12.38;;;6.57;;
25319;SDS011;13256;49.012;8.610;2023-02-28T15:19:13;11.18;;;7.03;;
25319;SDS011;13256;49.012;8.610;2023-02-28T15:21:48;12.35;;;6.80;;
25319;SDS011;13256;49.012;8.610;2023-02-28T15:50:29;13.20;;;7.10;;
25319;SDS011;13256;49.012;8.610;2023-02-28T15:52:58;18.70;;;9.07;;
25319;SDS011;13256;49.012;8.610;2023-02-28T15:55:32;16.40;;;9.25;;
25319;SDS011;13256;49.012;8.610;2023-02-28T15:58:24;14.88;;;7.65;;
25319;SDS011;13256;49.012;8.610;2023-02-28T16:03:52;12.70;;;7.90;;
25319;SDS011;13256;49.012;8.610;2023-02-28T16:09:11;13.13;;;7.28;;
25319;SDS011;13256;49.012;8.610;2023-02-28T16:11:43;11.35;;;6.97;;
25319;SDS011;13256;49.012;8.610;2023-02-28T16:14:16;11.98;;;7.25;;
25319;SDS011;13256;49.012;8.610;2023-02-28T16:17:06;13.00;;;7.03;;
25319;SDS011;13256;49.012;8.610;2023-02-28T16:19:40;13.57;;;7.47;;
25319;SDS011;13256;49.012;8.610;2023-02-28T16:22:07;13.65;;;7.82;;
25319;SDS011;13256;49.012;8.610;2023-02-28T16:24:36;14.15;;;8.02;;
25319;SDS011;13256;49.012;8.610;2023-02-28T16:27:24;11.48;;;6.82;;
25319;SDS011;13256;49.012;8.610;2023-02-28T16:29:56;17.77;;;6.93;;
25319;SDS011;13256;49.012;8.610;2023-02-28T16:32:23;15.77;;;6.60;;
25319;SDS011;13256;49.012;8.610;2023-02-28T16:34:53;13.85;;;7.68;;
25319;SDS011;13256;49.012;8.610;2023-02-28T16:37:20;16.15;;;7.90;;
25319;SDS011;13256;49.012;8.610;2023-02-28T16:39:47;15.25;;;8.02;;
25319;SDS011;13256;49.012;8.610;2023-02-28T16:42:22;24.38;;;11.20;;
25319;SDS011;13256;49.012;8.610;2023-02-28T16:44:56;18.10;;;8.93;;
25319;SDS011;13256;49.012;8.610;2023-02-28T16:47:53;115.97;;;39.55;;
25319;SDS011;13256;49.012;8.610;2023-02-28T16:50:25;31.70;;;13.27;;
25319;SDS011;13256;49.012;8.610;2023-02-28T16:53:00;15.65;;;8.20;;
25319;SDS011;13256;49.012;8.610;2023-02-28T16:55:27;13.60;;;7.22;;
25319;SDS011;13256;49.012;8.610;2023-02-28T16:57:55;25.05;;;9.68;;
25319;SDS011;13256;49.012;8.610;2023-02-28T17:00:25;17.35;;;8.15;;
25319;SDS011;13256;49.012;8.610;2023-02-28T17:02:55;15.40;;;7.55;;
25319;SDS011;13256;49.012;8.610;2023-02-28T17:05:25;14.25;;;7.65;;
25319;SDS011;13256;49.012;8.610;2023-02-28T17:08:02;14.75;;;7.43;;
25319;SDS011;13256;49.012;8.610;2023-02-28T17:10:29;14.38;;;6.82;;
25319;SDS011;13256;49.012;8.610;2023-02-28T17:13:01;25.27;;;9.25;;
25319;SDS011;13256;49.012;8.610;2023-02-28T17:15:42;12.23;;;7.63;;
25319;SDS011;13256;49.012;8.610;2023-02-28T17:18:13;17.17;;;8.23;;
25319;SDS011;13256;49.012;8.610;2023-02-28T17:20:42;15.40;;;7.50;;
25319;SDS011;13256;49.012;8.610;2023-02-28T17:23:09;15.40;;;7.72;;
25319;SDS011;13256;49.012;8.610;2023-02-28T17:25:38;14.05;;;7.63;;
25319;SDS011;13256;49.012;8.610;2023-02-28T17:28:05;19.83;;;9.02;;
25319;SDS011;13256;49.012;8.610;2023-02-28T17:30:33;15.23;;;7.60;;
25319;SDS011;13256;49.012;8.610;2023-02-28T17:33:06;13.88;;;7.57;;
25319;SDS011;13256;49.012;8.610;2023-02-28T17:35:39;16.23;;;7.65;;
25319;SDS011;13256;49.012;8.610;2023-02-28T17:38:24;16.98;;;8.27;;
25319;SDS011;13256;49.012;8.610;2023-02-28T17:40:54;20.58;;;10.82;;
25319;SDS011;13256;49.012;8.610;2023-02-28T17:43:57;16.50;;;9.15;;
25319;SDS011;13256;49.012;8.610;2023-02-28T17:46:27;15.48;;;8.70;;
25319;SDS011;13256;49.012;8.610;2023-02-28T17:48:55;19.10;;;8.27;;
25319;SDS011;13256;49.012;8.610;2023-02-28T17:51:23;14.43;;;7.78;;
25319;SDS011;13256;49.012;8.610;2023-02-28T17:53:54;15.43;;;7.45;;
25319;SDS011;13256;49.012;8.610;2023-02-28T17:58:55;17.20;;;8.25;;
25319;SDS011;13256;49.012;8.610;2023-02-28T18:01:22;21.63;;;9.93;;
25319;SDS011;13256;49.012;8.610;2023-02-28T18:03:55;20.03;;;9.37;;
25319;SDS011;13256;49.012;8.610;2023-02-28T18:06:41;29.52;;;14.48;;
25319;SDS011;13256;49.012;8.610;2023-02-28T18:12:08;12.93;;;7.27;;
25319;SDS011;13256;49.012;8.610;2023-02-28T18:14:35;14.95;;;7.55;;
25319;SDS011;13256;49.012;8.610;2023-02-28T18:17:03;14.48;;;7.93;;
25319;SDS011;13256;49.012;8.610;2023-02-28T18:19:33;17.63;;;9.35;;
25319;SDS011;13256;49.012;8.610;2023-02-28T18:22:02;25.55;;;8.07;;
25319;SDS011;13256;49.012;8.610;2023-02-28T18:24:32;14.35;;;8.20;;
25319;SDS011;13256;49.012;8.610;2023-02-28T18:27:05;15.65;;;7.90;;
25319;SDS011;13256;49.012;8.610;2023-02-28T18:29:32;17.13;;;8.40;;
25319;SDS011;13256;49.012;8.610;2023-02-28T18:32:02;14.77;;;7.90;;
25319;SDS011;13256;49.012;8.610;2023-02-28T18:34:34;19.30;;;7.53;;
25319;SDS011;13256;49.012;8.610;2023-02-28T18:37:02;15.30;;;8.23;;
25319;SDS011;13256;49.012;8.610;2023-02-28T18:39:33;13.90;;;7.07;;
25319;SDS011;13256;49.012;8.610;2023-02-28T18:42:00;15.85;;;7.60;;
25319;SDS011;13256;49.012;8.610;2023-02-28T18:44:30;29.55;;;13.70;;
25319;SDS011;13256;49.012;8.610;2023-02-28T18:46:59;23.75;;;11.30;;
25319;SDS011;13256;49.012;8.610;2023-02-28T18:49:31;35.55;;;15.25;;
25319;SDS011;13256;49.012;8.610;2023-02-28T18:54:30;18.13;;;8.43;;
25319;SDS011;13256;49.012;8.610;2023-02-28T18:57:00;19.88;;;8.43;;
25319;SDS011;13256;49.012;8.610;2023-02-28T18:59:30;29.85;;;13.00;;
25319;SDS011;13256;49.012;8.610;2023-02-28T19:01:57;34.13;;;13.07;;
25319;SDS011;13256;49.012;8.610;2023-02-28T19:04:24;28.30;;;12.35;;
25319;SDS011;13256;49.012;8.610;2023-02-28T19:06:54;21.50;;;9.32;;
25319;SDS011;13256;49.012;8.610;2023-02-28T19:09:21;17.90;;;8.30;;
25319;SDS011;13256;49.012;8.610;2023-02-28T19:11:50;15.90;;;9.40;;
25319;SDS011;13256;49.012;8.610;2023-02-28T19:14:19;16.20;;;9.05;;
25319;SDS011;13256;49.012;8.610;2023-02-28T19:16:47;15.23;;;8.73;;